createdAt,value
2022-12-04T00:02:27.434Z,51.50
2022-12-04T00:04:59.244Z,50.30
2022-12-04T00:07:30.985Z,52.70
2022-12-04T00:10:03.180Z,56.80
2022-12-04T00:12:35.464Z,55.30
2022-12-04T00:15:25.918Z,58.80
2022-12-04T00:17:57.997Z,51.10
2022-12-04T00:20:29.578Z,52.70
2022-12-04T00:23:01.085Z,49.20
2022-12-04T00:25:40.733Z,50.00
2022-12-04T00:28:12.661Z,48.50
2022-12-04T00:30:45.153Z,47.20
2022-12-04T00:33:16.655Z,48.00
2022-12-04T00:35:48.230Z,49.90
2022-12-04T00:38:19.788Z,47.30
2022-12-04T00:40:53.789Z,48.70
2022-12-04T00:43:25.691Z,48.00
2022-12-04T00:45:57.958Z,49.60
2022-12-04T00:48:29.615Z,47.90
2022-12-04T00:51:05.456Z,47.30
2022-12-04T00:53:37.585Z,46.70
2022-12-04T00:56:11.513Z,44.90
2022-12-04T00:58:43.663Z,44.70
2022-12-04T01:01:17.202Z,42.50
2022-12-04T01:06:24.648Z,42.30
2022-12-04T01:08:57.753Z,42.60
2022-12-04T01:11:30.420Z,43.50
2022-12-04T01:14:03.039Z,39.80
2022-12-04T01:16:37.905Z,39.60
2022-12-04T01:19:12.005Z,43.60
2022-12-04T01:21:43.944Z,37.40
2022-12-04T01:24:15.799Z,38.70
2022-12-04T01:26:47.284Z,36.90
2022-12-04T01:29:18.765Z,38.10
2022-12-04T01:31:50.335Z,38.50
2022-12-04T01:34:21.962Z,39.70
2022-12-04T01:36:53.871Z,31.50
2022-12-04T01:39:25.439Z,35.30
2022-12-04T01:41:56.995Z,39.70
2022-12-04T01:44:30.688Z,36.00
2022-12-04T01:49:38.596Z,36.60
2022-12-04T01:52:16.679Z,36.60
2022-12-04T01:54:51.636Z,35.10
2022-12-04T01:57:26.176Z,37.80
2022-12-04T02:00:01.575Z,34.90
2022-12-04T02:02:36.798Z,33.80
2022-12-04T02:05:11.938Z,35.60
2022-12-04T02:07:45.584Z,38.20
2022-12-04T02:10:24.388Z,39.20
2022-12-04T02:13:03.839Z,32.90
2022-12-04T02:15:42.229Z,36.20
2022-12-04T02:18:23.761Z,38.00
2022-12-04T02:21:03.303Z,35.50
2022-12-04T02:24:05.085Z,34.40
2022-12-04T02:26:44.875Z,38.70
2022-12-04T02:29:25.267Z,35.80
2022-12-04T02:32:01.584Z,36.00
2022-12-04T02:34:42.784Z,36.30
2022-12-04T02:37:19.759Z,35.60
2022-12-04T02:39:57.977Z,34.20
2022-12-04T02:42:36.626Z,34.80
2022-12-04T02:45:13.529Z,34.40
2022-12-04T02:47:47.572Z,34.70
2022-12-04T02:50:22.294Z,34.90
2022-12-04T02:52:58.785Z,35.50
2022-12-04T02:55:36.625Z,34.80
2022-12-04T02:58:13.172Z,31.40
2022-12-04T03:00:48.297Z,33.30
2022-12-04T03:03:24.575Z,32.90
2022-12-04T03:06:01.690Z,32.10
2022-12-04T03:08:39.058Z,30.00
2022-12-04T03:11:10.621Z,32.50
2022-12-04T03:13:46.995Z,32.90
2022-12-04T03:16:23.785Z,33.20
2022-12-04T03:19:00.038Z,35.90
2022-12-04T03:21:34.628Z,34.40
2022-12-04T03:24:13.290Z,33.10
2022-12-04T03:26:48.132Z,31.60
2022-12-04T03:29:23.714Z,34.30
2022-12-04T03:32:05.827Z,31.70
2022-12-04T03:34:43.414Z,30.90
2022-12-04T03:37:19.344Z,32.70
2022-12-04T03:39:58.346Z,28.30
2022-12-04T03:42:37.392Z,30.30
2022-12-04T03:45:15.348Z,30.20
2022-12-04T03:47:52.604Z,31.40
2022-12-04T03:50:35.192Z,28.00
2022-12-04T03:53:16.141Z,29.30
2022-12-04T03:55:52.672Z,29.80
2022-12-04T03:58:29.340Z,27.90
2022-12-04T04:01:06.277Z,30.50
2022-12-04T04:03:44.580Z,32.70
2022-12-04T04:06:20.002Z,30.60
2022-12-04T04:08:55.877Z,31.60
2022-12-04T04:11:32.575Z,31.30
2022-12-04T04:14:27.402Z,31.40
2022-12-04T04:17:22.957Z,31.00
2022-12-04T04:20:17.184Z,30.00
2022-12-04T04:25:42.561Z,30.10
2022-12-04T04:28:31.978Z,27.10
2022-12-04T04:31:13.362Z,29.10
2022-12-04T04:33:53.886Z,28.90
2022-12-04T04:36:35.966Z,27.90
2022-12-04T04:39:16.436Z,27.10
2022-12-04T04:41:54.876Z,27.00
2022-12-04T04:44:30.831Z,27.30
2022-12-04T04:47:07.205Z,24.90
2022-12-04T04:49:41.360Z,25.20
2022-12-04T04:52:13.247Z,26.90
2022-12-04T04:54:45.731Z,25.10
2022-12-04T04:57:28.413Z,23.30
2022-12-04T05:00:01.116Z,30.20
2022-12-04T05:02:33.545Z,27.00
2022-12-04T05:05:05.797Z,26.80
2022-12-04T05:07:37.447Z,27.20
2022-12-04T05:10:11.888Z,25.00
2022-12-04T05:12:43.384Z,27.70
2022-12-04T05:15:15.400Z,27.80
2022-12-04T05:17:47.141Z,27.20
2022-12-04T05:20:18.910Z,28.60
2022-12-04T05:22:50.391Z,24.60
2022-12-04T05:25:21.916Z,27.70
2022-12-04T05:27:53.428Z,24.90
2022-12-04T05:30:25.025Z,27.20
2022-12-04T05:32:56.512Z,28.70
2022-12-04T05:35:28.112Z,24.60
2022-12-04T05:37:59.619Z,24.70
2022-12-04T05:40:31.152Z,24.70
2022-12-04T05:43:02.708Z,27.50
2022-12-04T05:45:34.225Z,24.60
2022-12-04T05:48:06.175Z,26.60
2022-12-04T05:50:39.081Z,23.40
2022-12-04T05:53:10.675Z,24.10
2022-12-04T05:55:42.234Z,24.80
2022-12-04T05:58:13.736Z,26.10
2022-12-04T06:00:45.315Z,24.30
2022-12-04T06:03:16.898Z,23.90
2022-12-04T06:05:48.671Z,27.60
2022-12-04T06:08:20.357Z,25.10
2022-12-04T06:10:52.154Z,27.00
2022-12-04T06:13:23.688Z,22.50
2022-12-04T06:15:55.471Z,24.50
2022-12-04T06:18:27.033Z,27.70
2022-12-04T06:21:01.494Z,28.60
2022-12-04T06:23:33.147Z,26.20
2022-12-04T06:26:07.479Z,24.90
2022-12-04T06:28:39.520Z,24.50
2022-12-04T06:31:13.559Z,24.10
2022-12-04T06:33:46.013Z,26.60
2022-12-04T06:36:19.642Z,24.80
2022-12-04T06:41:23.864Z,37.30
2022-12-04T06:43:55.521Z,25.50
2022-12-04T06:46:28.891Z,25.30
2022-12-04T06:51:34.534Z,23.10
2022-12-04T06:54:06.692Z,26.20
2022-12-04T06:56:38.257Z,27.40
2022-12-04T06:59:11.018Z,27.40
2022-12-04T07:01:42.634Z,24.40
2022-12-04T07:04:14.278Z,23.30
2022-12-04T07:06:45.857Z,27.20
2022-12-04T07:09:18.919Z,26.10
2022-12-04T07:11:50.579Z,27.10
2022-12-04T07:14:22.296Z,28.00
2022-12-04T07:16:53.888Z,27.50
2022-12-04T07:19:25.682Z,30.00
2022-12-04T07:21:57.140Z,30.80
2022-12-04T07:24:28.629Z,35.20
2022-12-04T07:27:00.327Z,38.70
2022-12-04T07:29:31.905Z,38.60
2022-12-04T07:32:03.581Z,39.30
2022-12-04T07:34:36.008Z,35.10
2022-12-04T07:37:07.890Z,31.60
2022-12-04T07:39:39.430Z,28.20
2022-12-04T07:42:10.933Z,29.80
2022-12-04T07:44:42.682Z,29.00
2022-12-04T07:47:14.420Z,28.40
2022-12-04T07:49:47.065Z,33.30
2022-12-04T07:52:18.581Z,28.40
2022-12-04T07:54:50.577Z,34.20
2022-12-04T07:57:22.059Z,38.80
2022-12-04T07:59:53.792Z,35.20
2022-12-04T08:02:25.982Z,33.50
2022-12-04T08:04:57.530Z,27.60
2022-12-04T08:07:29.192Z,29.30
2022-12-04T08:10:00.668Z,28.30
2022-12-04T08:12:34.119Z,30.10
2022-12-04T08:15:06.834Z,30.70
2022-12-04T08:17:38.301Z,20.70
2022-12-04T08:20:11.450Z,27.40
2022-12-04T08:22:43.026Z,32.20
2022-12-04T08:25:14.628Z,31.00
2022-12-04T08:27:48.018Z,27.40
2022-12-04T08:30:20.144Z,27.30
2022-12-04T08:32:51.944Z,26.70
2022-12-04T08:35:23.516Z,25.90
2022-12-04T08:37:57.468Z,24.00
2022-12-04T08:40:30.465Z,23.60
2022-12-04T08:43:03.420Z,22.40
2022-12-04T08:45:39.387Z,26.60
2022-12-04T08:48:11.418Z,25.40
2022-12-04T08:50:48.169Z,27.10
2022-12-04T08:53:19.884Z,27.50
2022-12-04T08:55:51.530Z,29.30
2022-12-04T08:58:23.618Z,27.30
2022-12-04T09:00:55.233Z,25.80
2022-12-04T09:03:31.002Z,23.00
2022-12-04T09:06:06.150Z,30.80
2022-12-04T09:08:38.409Z,33.00
2022-12-04T09:11:13.206Z,30.80
2022-12-04T09:13:46.923Z,34.50
2022-12-04T09:18:52.940Z,29.40
2022-12-04T09:21:27.009Z,29.40
2022-12-04T09:24:02.523Z,30.40
2022-12-04T09:26:35.447Z,31.50
2022-12-04T09:29:09.665Z,30.30
2022-12-04T09:31:48.364Z,29.00
2022-12-04T09:34:20.913Z,25.00
2022-12-04T09:36:53.155Z,28.70
2022-12-04T09:39:25.127Z,29.10
2022-12-04T09:42:10.080Z,34.50
2022-12-04T09:44:46.918Z,25.90
2022-12-04T09:47:26.386Z,25.10
2022-12-04T09:50:02.016Z,30.00
2022-12-04T09:52:48.275Z,30.60
2022-12-04T09:55:26.060Z,34.80
2022-12-04T09:58:02.692Z,28.30
2022-12-04T10:00:42.136Z,22.40
2022-12-04T10:03:20.025Z,24.80
2022-12-04T10:06:03.697Z,23.00
2022-12-04T10:08:40.013Z,27.20
2022-12-04T10:11:19.242Z,38.90
2022-12-04T10:14:22.163Z,31.80
2022-12-04T10:17:15.937Z,36.50
2022-12-04T10:19:58.023Z,32.50
2022-12-04T10:22:37.876Z,31.20
2022-12-04T10:25:16.997Z,31.50
2022-12-04T10:27:54.041Z,33.70
2022-12-04T10:30:28.491Z,32.60
2022-12-04T10:33:06.156Z,31.00
2022-12-04T10:35:39.185Z,30.20
2022-12-04T10:38:24.900Z,26.60
2022-12-04T10:41:01.196Z,26.80
2022-12-04T10:43:43.539Z,27.50
2022-12-04T10:46:22.444Z,23.90
2022-12-04T10:48:58.417Z,25.20
2022-12-04T10:51:37.703Z,24.90
2022-12-04T10:54:23.294Z,27.80
2022-12-04T10:56:58.775Z,24.50
2022-12-04T10:59:32.416Z,24.30
2022-12-04T11:02:16.580Z,25.10
2022-12-04T11:04:57.665Z,23.20
2022-12-04T11:07:37.512Z,22.00
2022-12-04T11:10:23.584Z,21.30
2022-12-04T11:13:01.544Z,21.10
2022-12-04T11:15:45.212Z,21.30
2022-12-04T11:18:23.214Z,23.10
2022-12-04T11:20:59.303Z,24.30
2022-12-04T11:23:46.241Z,22.30
2022-12-04T11:26:30.794Z,23.10
2022-12-04T11:29:05.925Z,27.80
2022-12-04T11:31:39.218Z,24.50
2022-12-04T11:34:19.373Z,29.20
2022-12-04T11:36:58.180Z,26.50
2022-12-04T11:39:36.000Z,31.60
2022-12-04T11:42:18.052Z,28.10
2022-12-04T11:44:58.827Z,24.40
2022-12-04T11:47:32.436Z,22.50
2022-12-04T11:50:13.375Z,23.20
2022-12-04T11:53:01.291Z,22.90
2022-12-04T11:55:41.970Z,22.20
2022-12-04T11:58:39.595Z,24.00
2022-12-04T12:01:27.947Z,23.10
2022-12-04T12:04:19.814Z,25.30
2022-12-04T12:07:04.624Z,23.20
2022-12-04T12:09:44.769Z,24.40
2022-12-04T12:12:24.263Z,23.40
2022-12-04T12:15:07.201Z,23.60
2022-12-04T12:17:47.038Z,23.00
2022-12-04T12:20:25.439Z,22.70
2022-12-04T12:23:16.948Z,24.20
2022-12-04T12:26:00.442Z,25.00
2022-12-04T12:28:53.300Z,25.30
2022-12-04T12:31:40.153Z,24.10
2022-12-04T12:34:17.353Z,24.50
2022-12-04T12:36:59.307Z,26.70
2022-12-04T12:39:40.572Z,21.70
2022-12-04T12:42:20.302Z,23.00
2022-12-04T12:45:00.703Z,29.70
2022-12-04T12:47:37.956Z,29.80
2022-12-04T12:50:19.658Z,25.20
2022-12-04T12:52:57.953Z,28.10
2022-12-04T12:55:34.431Z,28.50
2022-12-04T12:58:15.163Z,34.70
2022-12-04T13:00:53.117Z,38.10
2022-12-04T13:03:31.625Z,38.10
2022-12-04T13:06:08.172Z,35.80
2022-12-04T13:08:47.944Z,31.30
2022-12-04T13:11:24.635Z,31.70
2022-12-04T13:13:59.414Z,34.00
2022-12-04T13:16:36.282Z,39.60
2022-12-04T13:19:17.463Z,39.30
2022-12-04T13:21:53.626Z,34.60
2022-12-04T13:24:47.545Z,42.60
2022-12-04T13:27:29.721Z,38.00
2022-12-04T13:30:11.758Z,42.40
2022-12-04T13:33:16.069Z,44.70
2022-12-04T13:36:15.182Z,31.40
2022-12-04T13:39:05.281Z,36.80
2022-12-04T13:41:39.923Z,41.80
2022-12-04T13:44:21.373Z,39.70
2022-12-04T13:46:58.559Z,43.80
2022-12-04T13:49:31.753Z,32.90
2022-12-04T13:52:05.491Z,30.20
2022-12-04T13:57:23.383Z,33.10
2022-12-04T14:00:07.228Z,31.40
2022-12-04T14:02:52.347Z,34.00
2022-12-04T14:05:32.552Z,34.30
2022-12-04T14:08:08.463Z,37.00
2022-12-04T14:10:41.105Z,34.70
2022-12-04T14:13:22.697Z,34.10
2022-12-04T14:16:07.927Z,37.10
2022-12-04T14:18:40.615Z,31.60
2022-12-04T14:21:12.114Z,34.00
2022-12-04T14:23:44.566Z,36.20
2022-12-04T14:29:40.850Z,35.10
2022-12-04T14:32:18.320Z,40.60
2022-12-04T14:34:50.507Z,41.60
2022-12-04T14:37:31.648Z,42.50
2022-12-04T14:40:06.951Z,39.30
2022-12-04T14:42:40.321Z,41.90
2022-12-04T14:45:25.735Z,41.50
2022-12-04T14:48:14.556Z,47.40
2022-12-04T14:50:54.827Z,44.60
2022-12-04T14:53:36.125Z,45.20
2022-12-04T14:56:24.265Z,40.80
2022-12-04T14:58:56.260Z,36.80
2022-12-04T15:01:32.752Z,41.80
2022-12-04T15:04:14.893Z,43.90
2022-12-04T15:06:54.251Z,37.80
2022-12-04T15:09:48.309Z,41.50
2022-12-04T15:12:35.566Z,40.80
2022-12-04T15:15:17.371Z,35.00
2022-12-04T15:18:00.623Z,43.20
2022-12-04T15:20:44.545Z,36.50
2022-12-04T15:23:18.456Z,47.10
2022-12-04T15:25:53.294Z,47.20
2022-12-04T15:28:29.914Z,50.00
2022-12-04T15:31:05.883Z,43.30
2022-12-04T15:33:41.056Z,46.00
2022-12-04T15:36:19.092Z,46.80
2022-12-04T15:38:53.700Z,44.00
2022-12-04T15:41:37.599Z,43.60
2022-12-04T15:46:55.645Z,37.30
2022-12-04T15:49:30.221Z,37.90
2022-12-04T15:52:14.473Z,37.30
2022-12-04T15:54:51.986Z,36.50
2022-12-04T15:57:32.675Z,40.20
2022-12-04T16:00:06.743Z,40.80
2022-12-04T16:02:41.594Z,38.20
2022-12-04T16:05:32.709Z,39.40
2022-12-04T16:08:19.294Z,44.20
2022-12-04T16:10:58.973Z,40.80
2022-12-04T16:13:33.375Z,38.30
2022-12-04T16:16:08.760Z,45.70
2022-12-04T16:18:41.460Z,43.80
2022-12-04T16:21:23.977Z,41.80
2022-12-04T16:23:55.484Z,50.80
2022-12-04T16:26:27.338Z,48.80
2022-12-04T16:28:59.233Z,47.50
2022-12-04T16:31:31.229Z,47.70
2022-12-04T16:34:02.853Z,48.20
2022-12-04T16:36:34.401Z,44.00
2022-12-04T16:39:06.227Z,44.50
2022-12-04T16:41:37.769Z,47.20
2022-12-04T16:44:15.633Z,48.80
2022-12-04T16:46:47.255Z,51.90
2022-12-04T16:49:18.821Z,44.70
2022-12-04T16:51:50.750Z,40.80
2022-12-04T16:54:22.261Z,42.30
2022-12-04T16:56:53.870Z,46.50
2022-12-04T16:59:25.592Z,45.10
2022-12-04T17:01:57.166Z,46.40
2022-12-04T17:04:28.980Z,40.80
2022-12-04T17:07:02.226Z,47.90
2022-12-04T17:09:33.783Z,43.50
2022-12-04T17:12:05.657Z,60.80
2022-12-04T17:14:37.229Z,56.90
2022-12-04T17:17:08.967Z,43.90
2022-12-04T17:19:40.473Z,43.50
2022-12-04T17:22:13.597Z,39.00
2022-12-04T17:24:51.630Z,37.10
2022-12-04T17:27:28.376Z,45.00
2022-12-04T17:29:59.969Z,42.80
2022-12-04T17:32:33.251Z,52.40
2022-12-04T17:35:08.829Z,48.80
2022-12-04T17:37:40.686Z,40.80
2022-12-04T17:40:14.659Z,39.40
2022-12-04T17:42:46.226Z,35.20
2022-12-04T17:45:17.932Z,42.10
2022-12-04T17:47:49.567Z,44.20
2022-12-04T17:50:21.343Z,33.50
2022-12-04T17:52:52.858Z,30.20
2022-12-04T17:55:24.394Z,36.90
2022-12-04T17:57:55.916Z,42.50
2022-12-04T18:00:28.542Z,36.20
2022-12-04T18:03:00.092Z,35.80
2022-12-04T18:05:33.168Z,32.60
2022-12-04T18:08:05.068Z,29.50
2022-12-04T18:10:38.372Z,32.40
2022-12-04T18:13:09.883Z,32.50
2022-12-04T18:15:41.417Z,38.00
2022-12-04T18:18:13.087Z,43.60
2022-12-04T18:20:44.605Z,33.80
2022-12-04T18:23:16.275Z,32.80
2022-12-04T18:25:58.258Z,34.80
2022-12-04T18:28:32.878Z,47.10
2022-12-04T18:31:07.825Z,38.80
2022-12-04T18:33:41.531Z,35.30
2022-12-04T18:38:54.330Z,38.10
2022-12-04T18:41:27.209Z,41.40
2022-12-04T18:43:59.704Z,42.50
2022-12-04T18:46:31.675Z,38.20
2022-12-04T18:49:03.585Z,34.00
2022-12-04T18:51:39.788Z,34.00
2022-12-04T18:54:14.524Z,38.20
2022-12-04T18:56:46.798Z,43.30
2022-12-04T18:59:21.381Z,45.80
2022-12-04T19:01:54.030Z,39.60
2022-12-04T19:04:26.979Z,41.20
2022-12-04T19:06:58.775Z,40.00
2022-12-04T19:10:02.545Z,36.30
2022-12-04T19:12:22.670Z,39.80
2022-12-04T19:14:54.156Z,42.90
2022-12-04T19:17:25.772Z,50.60
2022-12-04T19:19:57.444Z,46.40
2022-12-04T19:22:29.988Z,46.40
2022-12-04T19:25:01.619Z,43.70
2022-12-04T19:27:33.588Z,43.90
2022-12-04T19:30:05.805Z,42.00
2022-12-04T19:32:37.375Z,42.00
2022-12-04T19:35:09.790Z,49.80
2022-12-04T19:37:42.222Z,41.10
2022-12-04T19:40:16.228Z,40.10
2022-12-04T19:42:47.967Z,34.00
2022-12-04T19:45:19.600Z,37.20
2022-12-04T19:47:51.084Z,32.30
2022-12-04T19:50:22.574Z,32.60
2022-12-04T19:52:54.141Z,35.50
2022-12-04T19:55:25.675Z,36.60
2022-12-04T19:57:57.219Z,37.70
2022-12-04T20:00:28.755Z,34.00
2022-12-04T20:03:00.394Z,32.00
2022-12-04T20:05:32.098Z,31.50
2022-12-04T20:10:35.611Z,37.50
2022-12-04T20:13:07.141Z,38.30
2022-12-04T20:15:39.480Z,39.50
2022-12-04T20:18:10.990Z,39.20
2022-12-04T20:20:45.470Z,41.00
2022-12-04T20:23:17.021Z,34.50
2022-12-04T20:25:48.552Z,39.30
2022-12-04T20:28:20.068Z,37.80
2022-12-04T20:30:52.324Z,34.10
2022-12-04T20:33:24.091Z,36.60
2022-12-04T20:35:55.713Z,32.70
2022-12-04T20:38:27.285Z,29.70
2022-12-04T20:41:02.749Z,30.10
2022-12-04T20:43:34.609Z,30.30
2022-12-04T20:46:16.435Z,32.50
2022-12-04T20:48:49.366Z,36.70
2022-12-04T20:51:22.884Z,38.10
2022-12-04T20:53:58.044Z,37.10
2022-12-04T20:56:33.254Z,40.90
2022-12-04T20:59:07.583Z,41.40
2022-12-04T21:01:40.119Z,35.10
2022-12-04T21:04:12.953Z,33.50
2022-12-04T21:06:45.105Z,35.70
2022-12-04T21:09:18.649Z,34.30
2022-12-04T21:14:40.180Z,32.20
2022-12-04T21:17:16.787Z,30.90
2022-12-04T21:19:50.133Z,30.90
2022-12-04T21:22:21.898Z,31.20
2022-12-04T21:24:53.442Z,33.50
2022-12-04T21:27:24.944Z,35.60
2022-12-04T21:29:56.949Z,31.50
2022-12-04T21:32:28.745Z,36.30
2022-12-04T21:35:01.541Z,34.50
2022-12-04T21:37:33.524Z,35.00
2022-12-04T21:40:05.706Z,29.10
2022-12-04T21:42:38.819Z,29.00
2022-12-04T21:45:11.612Z,30.40
2022-12-04T21:47:43.151Z,27.40
2022-12-04T21:50:14.724Z,33.90
2022-12-04T21:52:46.203Z,31.20
2022-12-04T21:55:17.960Z,27.20
2022-12-04T21:57:49.497Z,33.40
2022-12-04T22:00:21.522Z,30.00
2022-12-04T22:02:53.141Z,30.90
2022-12-04T22:05:24.777Z,35.00
2022-12-04T22:07:56.400Z,31.40
2022-12-04T22:10:28.009Z,31.40
2022-12-04T22:13:02.793Z,34.40
2022-12-04T22:15:39.511Z,34.00
2022-12-04T22:18:12.683Z,29.40
2022-12-04T22:20:44.796Z,30.90
2022-12-04T22:23:16.717Z,30.10
2022-12-04T22:25:48.950Z,31.40
2022-12-04T22:28:20.715Z,33.50
2022-12-04T22:30:52.276Z,32.30
2022-12-04T22:33:23.805Z,34.80
2022-12-04T22:35:55.452Z,27.70
2022-12-04T22:38:27.024Z,32.80
2022-12-04T22:41:01.570Z,33.50
2022-12-04T22:43:40.547Z,33.90
2022-12-04T22:46:14.474Z,35.90
2022-12-04T22:51:19.497Z,32.70
2022-12-04T22:53:52.948Z,31.40
2022-12-04T22:56:26.365Z,31.00
2022-12-04T22:58:58.782Z,31.50
2022-12-04T23:01:32.024Z,22.40
2022-12-04T23:04:04.833Z,25.00
2022-12-04T23:06:36.889Z,26.30
2022-12-04T23:09:10.316Z,28.60
2022-12-04T23:11:42.380Z,24.30
2022-12-04T23:14:17.105Z,31.00
2022-12-04T23:16:48.958Z,27.80
2022-12-04T23:19:21.166Z,27.50
2022-12-04T23:21:57.003Z,23.20
2022-12-04T23:24:29.057Z,26.40
2022-12-04T23:27:00.750Z,30.00
2022-12-04T23:32:23.796Z,34.60
2022-12-04T23:34:55.309Z,34.50
2022-12-04T23:37:26.784Z,32.10
2022-12-04T23:39:58.532Z,31.80
2022-12-04T23:42:33.205Z,32.10
2022-12-04T23:45:07.288Z,31.40
2022-12-04T23:47:39.100Z,32.90
2022-12-04T23:50:11.633Z,34.20
2022-12-04T23:52:43.309Z,29.60
2022-12-04T23:55:14.829Z,30.20
2022-12-04T23:57:46.370Z,32.80
